Boston, Massachusetts
Traffic Map
Current Weather Conditions
Boston, Massachusetts
Overcast Moderate Fog
Overcast
48°
Feels Like: 44°
Wind Chill: 44° Ceiling: 200
Heat Index: 48° Visibility: 0.5mi
Dew Point: 48° Wind: 9mph
Humidity: 100% Direction: 80° (E)
Pressure: 29.59in Gusts: 0mph
Raw Report DataKBOS 210754Z 08008KT 1/2SM R04R/2400V2600FT FG VV002 09/09 A2959 RMK AO2 SLP020 T00890089
Traffic Incident Summary
Active as of:
Severity:
Category:
InformationThere was an issue retrieving the traffic information for this location. Please try a different location or try again shortly.
Advertisements
Track Severe Weather on mobile